sensor_id;sensor_type;location;lat;lon;timestamp;P1;durP1;ratioP1;P2;durP2;ratioP2
37241;SDS011;23135;51.078;12.108;2023-09-18T00:00:24;8.98;;;2.40;;
37241;SDS011;23135;51.078;12.108;2023-09-18T00:02:49;4.68;;;2.75;;
37241;SDS011;23135;51.078;12.108;2023-09-18T00:05:15;2.10;;;1.65;;
37241;SDS011;23135;51.078;12.108;2023-09-18T00:07:41;3.03;;;2.63;;
37241;SDS011;23135;51.078;12.108;2023-09-18T00:10:09;9.20;;;2.90;;
37241;SDS011;23135;51.078;12.108;2023-09-18T00:12:35;4.45;;;2.47;;
37241;SDS011;23135;51.078;12.108;2023-09-18T00:15:01;4.47;;;2.25;;
37241;SDS011;23135;51.078;12.108;2023-09-18T00:17:27;2.55;;;2.35;;
37241;SDS011;23135;51.078;12.108;2023-09-18T00:19:52;2.08;;;1.95;;
37241;SDS011;23135;51.078;12.108;2023-09-18T00:22:19;4.53;;;2.38;;
37241;SDS011;23135;51.078;12.108;2023-09-18T00:24:44;1.70;;;1.35;;
37241;SDS011;23135;51.078;12.108;2023-09-18T00:27:10;1.30;;;1.20;;
37241;SDS011;23135;51.078;12.108;2023-09-18T00:29:36;1.85;;;1.15;;
37241;SDS011;23135;51.078;12.108;2023-09-18T00:32:02;1.83;;;1.35;;
37241;SDS011;23135;51.078;12.108;2023-09-18T00:34:29;5.38;;;1.15;;
37241;SDS011;23135;51.078;12.108;2023-09-18T00:36:56;2.33;;;2.13;;
37241;SDS011;23135;51.078;12.108;2023-09-18T00:39:24;5.00;;;2.15;;
37241;SDS011;23135;51.078;12.108;2023-09-18T00:41:50;5.80;;;2.08;;
37241;SDS011;23135;51.078;12.108;2023-09-18T00:44:19;1.27;;;1.23;;
37241;SDS011;23135;51.078;12.108;2023-09-18T00:46:45;5.53;;;1.10;;
37241;SDS011;23135;51.078;12.108;2023-09-18T00:49:11;2.95;;;1.40;;
37241;SDS011;23135;51.078;12.108;2023-09-18T00:51:37;1.83;;;1.73;;
37241;SDS011;23135;51.078;12.108;2023-09-18T00:54:03;2.30;;;1.83;;
37241;SDS011;23135;51.078;12.108;2023-09-18T00:56:29;2.72;;;1.95;;
37241;SDS011;23135;51.078;12.108;2023-09-18T00:58:55;3.78;;;2.00;;
37241;SDS011;23135;51.078;12.108;2023-09-18T01:01:20;2.40;;;2.20;;
37241;SDS011;23135;51.078;12.108;2023-09-18T01:03:48;5.63;;;2.50;;
37241;SDS011;23135;51.078;12.108;2023-09-18T01:06:16;1.70;;;1.60;;
37241;SDS011;23135;51.078;12.108;2023-09-18T01:08:44;2.03;;;1.83;;
37241;SDS011;23135;51.078;12.108;2023-09-18T01:11:10;5.10;;;2.15;;
37241;SDS011;23135;51.078;12.108;2023-09-18T01:13:49;2.10;;;2.00;;
37241;SDS011;23135;51.078;12.108;2023-09-18T01:16:34;7.90;;;2.58;;
37241;SDS011;23135;51.078;12.108;2023-09-18T01:19:09;4.50;;;2.45;;
37241;SDS011;23135;51.078;12.108;2023-09-18T01:21:34;2.58;;;1.77;;
37241;SDS011;23135;51.078;12.108;2023-09-18T01:24:00;3.17;;;1.60;;
37241;SDS011;23135;51.078;12.108;2023-09-18T01:26:26;2.53;;;2.33;;
37241;SDS011;23135;51.078;12.108;2023-09-18T01:28:51;3.40;;;1.73;;
37241;SDS011;23135;51.078;12.108;2023-09-18T01:31:17;1.88;;;1.70;;
37241;SDS011;23135;51.078;12.108;2023-09-18T01:33:43;2.38;;;1.52;;
37241;SDS011;23135;51.078;12.108;2023-09-18T01:36:12;7.95;;;1.70;;
37241;SDS011;23135;51.078;12.108;2023-09-18T01:38:39;3.33;;;1.75;;
37241;SDS011;23135;51.078;12.108;2023-09-18T01:41:05;2.70;;;2.42;;
37241;SDS011;23135;51.078;12.108;2023-09-18T01:43:31;2.22;;;1.80;;
37241;SDS011;23135;51.078;12.108;2023-09-18T01:45:57;2.90;;;2.67;;
37241;SDS011;23135;51.078;12.108;2023-09-18T01:48:22;2.72;;;2.00;;
37241;SDS011;23135;51.078;12.108;2023-09-18T01:50:48;2.00;;;1.90;;
37241;SDS011;23135;51.078;12.108;2023-09-18T01:53:14;1.77;;;1.63;;
37241;SDS011;23135;51.078;12.108;2023-09-18T01:55:39;3.70;;;1.88;;
37241;SDS011;23135;51.078;12.108;2023-09-18T01:58:05;3.83;;;2.55;;
37241;SDS011;23135;51.078;12.108;2023-09-18T02:00:30;4.18;;;2.05;;
37241;SDS011;23135;51.078;12.108;2023-09-18T02:02:56;2.65;;;2.42;;
37241;SDS011;23135;51.078;12.108;2023-09-18T02:05:22;2.42;;;1.88;;
37241;SDS011;23135;51.078;12.108;2023-09-18T02:07:48;2.35;;;1.80;;
37241;SDS011;23135;51.078;12.108;2023-09-18T02:10:14;5.30;;;1.65;;
37241;SDS011;23135;51.078;12.108;2023-09-18T02:12:39;4.10;;;1.90;;
37241;SDS011;23135;51.078;12.108;2023-09-18T02:15:06;3.25;;;2.40;;
37241;SDS011;23135;51.078;12.108;2023-09-18T02:17:32;3.78;;;2.10;;
37241;SDS011;23135;51.078;12.108;2023-09-18T02:19:58;3.17;;;2.15;;
37241;SDS011;23135;51.078;12.108;2023-09-18T02:22:25;2.72;;;2.55;;
37241;SDS011;23135;51.078;12.108;2023-09-18T02:24:51;3.80;;;3.10;;
37241;SDS011;23135;51.078;12.108;2023-09-18T02:27:17;2.58;;;2.30;;
37241;SDS011;23135;51.078;12.108;2023-09-18T02:29:43;2.78;;;2.50;;
37241;SDS011;23135;51.078;12.108;2023-09-18T02:32:09;4.25;;;2.35;;
37241;SDS011;23135;51.078;12.108;2023-09-18T02:34:35;2.70;;;2.50;;
37241;SDS011;23135;51.078;12.108;2023-09-18T02:37:00;5.50;;;2.70;;
37241;SDS011;23135;51.078;12.108;2023-09-18T02:39:26;5.93;;;2.80;;
37241;SDS011;23135;51.078;12.108;2023-09-18T02:41:51;5.22;;;2.95;;
37241;SDS011;23135;51.078;12.108;2023-09-18T02:44:17;3.05;;;2.75;;
37241;SDS011;23135;51.078;12.108;2023-09-18T02:46:43;6.07;;;2.80;;
37241;SDS011;23135;51.078;12.108;2023-09-18T02:49:08;3.53;;;2.58;;
37241;SDS011;23135;51.078;12.108;2023-09-18T02:51:34;3.05;;;2.80;;
37241;SDS011;23135;51.078;12.108;2023-09-18T02:53:59;3.67;;;2.55;;
37241;SDS011;23135;51.078;12.108;2023-09-18T02:56:25;6.18;;;2.38;;
37241;SDS011;23135;51.078;12.108;2023-09-18T02:58:51;3.05;;;2.22;;
37241;SDS011;23135;51.078;12.108;2023-09-18T03:01:16;2.25;;;1.70;;
37241;SDS011;23135;51.078;12.108;2023-09-18T03:03:42;2.08;;;1.58;;
37241;SDS011;23135;51.078;12.108;2023-09-18T03:06:08;2.80;;;2.25;;
37241;SDS011;23135;51.078;12.108;2023-09-18T03:08:34;2.92;;;2.15;;
37241;SDS011;23135;51.078;12.108;2023-09-18T03:11:00;2.17;;;2.00;;
37241;SDS011;23135;51.078;12.108;2023-09-18T03:13:26;2.05;;;1.95;;
37241;SDS011;23135;51.078;12.108;2023-09-18T03:15:52;3.55;;;2.28;;
37241;SDS011;23135;51.078;12.108;2023-09-18T03:18:18;2.83;;;2.08;;
37241;SDS011;23135;51.078;12.108;2023-09-18T03:20:44;2.45;;;1.83;;
37241;SDS011;23135;51.078;12.108;2023-09-18T03:23:10;4.22;;;2.38;;
37241;SDS011;23135;51.078;12.108;2023-09-18T03:25:36;1.73;;;1.63;;
37241;SDS011;23135;51.078;12.108;2023-09-18T03:28:04;2.50;;;2.17;;
37241;SDS011;23135;51.078;12.108;2023-09-18T03:30:30;3.58;;;1.85;;
37241;SDS011;23135;51.078;12.108;2023-09-18T03:32:56;4.85;;;2.17;;
37241;SDS011;23135;51.078;12.108;2023-09-18T03:35:22;2.92;;;1.95;;
37241;SDS011;23135;51.078;12.108;2023-09-18T03:37:48;2.58;;;2.25;;
37241;SDS011;23135;51.078;12.108;2023-09-18T03:40:15;2.17;;;1.40;;
37241;SDS011;23135;51.078;12.108;2023-09-18T03:42:42;2.90;;;1.83;;
37241;SDS011;23135;51.078;12.108;2023-09-18T03:45:08;2.92;;;1.95;;
37241;SDS011;23135;51.078;12.108;2023-09-18T03:47:34;3.53;;;2.03;;
37241;SDS011;23135;51.078;12.108;2023-09-18T03:50:01;4.97;;;2.22;;
37241;SDS011;23135;51.078;12.108;2023-09-18T03:52:27;2.08;;;1.85;;
37241;SDS011;23135;51.078;12.108;2023-09-18T03:54:53;4.03;;;2.10;;
37241;SDS011;23135;51.078;12.108;2023-09-18T03:57:19;5.80;;;3.38;;
37241;SDS011;23135;51.078;12.108;2023-09-18T03:59:44;4.72;;;3.63;;
37241;SDS011;23135;51.078;12.108;2023-09-18T04:02:10;16.08;;;5.00;;
37241;SDS011;23135;51.078;12.108;2023-09-18T04:04:35;6.90;;;4.55;;
37241;SDS011;23135;51.078;12.108;2023-09-18T04:07:05;7.60;;;4.32;;
37241;SDS011;23135;51.078;12.108;2023-09-18T04:09:31;6.82;;;4.90;;
37241;SDS011;23135;51.078;12.108;2023-09-18T04:11:57;7.40;;;4.70;;
37241;SDS011;23135;51.078;12.108;2023-09-18T04:14:23;4.28;;;3.88;;
37241;SDS011;23135;51.078;12.108;2023-09-18T04:16:49;11.45;;;4.47;;
37241;SDS011;23135;51.078;12.108;2023-09-18T04:19:15;10.50;;;4.43;;
37241;SDS011;23135;51.078;12.108;2023-09-18T04:21:41;10.75;;;5.20;;
37241;SDS011;23135;51.078;12.108;2023-09-18T04:24:06;12.93;;;5.97;;
37241;SDS011;23135;51.078;12.108;2023-09-18T04:26:32;18.98;;;5.95;;
37241;SDS011;23135;51.078;12.108;2023-09-18T04:28:59;18.38;;;5.40;;
37241;SDS011;23135;51.078;12.108;2023-09-18T04:31:25;10.27;;;5.78;;
37241;SDS011;23135;51.078;12.108;2023-09-18T04:33:52;7.82;;;4.53;;
37241;SDS011;23135;51.078;12.108;2023-09-18T04:36:18;12.02;;;4.20;;
37241;SDS011;23135;51.078;12.108;2023-09-18T04:38:44;6.28;;;3.80;;
37241;SDS011;23135;51.078;12.108;2023-09-18T04:41:09;9.23;;;3.20;;
37241;SDS011;23135;51.078;12.108;2023-09-18T04:43:39;5.28;;;2.92;;
37241;SDS011;23135;51.078;12.108;2023-09-18T04:46:05;4.63;;;3.10;;
37241;SDS011;23135;51.078;12.108;2023-09-18T04:48:31;7.22;;;3.03;;
37241;SDS011;23135;51.078;12.108;2023-09-18T04:50:57;4.65;;;3.05;;
37241;SDS011;23135;51.078;12.108;2023-09-18T04:53:23;7.18;;;3.67;;
37241;SDS011;23135;51.078;12.108;2023-09-18T04:55:49;9.73;;;2.85;;
37241;SDS011;23135;51.078;12.108;2023-09-18T04:58:15;6.50;;;4.53;;
37241;SDS011;23135;51.078;12.108;2023-09-18T05:00:42;8.43;;;3.90;;
37241;SDS011;23135;51.078;12.108;2023-09-18T05:03:07;8.05;;;3.67;;
37241;SDS011;23135;51.078;12.108;2023-09-18T05:05:34;7.35;;;3.50;;
37241;SDS011;23135;51.078;12.108;2023-09-18T05:08:05;8.07;;;3.47;;
37241;SDS011;23135;51.078;12.108;2023-09-18T05:10:34;6.50;;;3.22;;
37241;SDS011;23135;51.078;12.108;2023-09-18T05:13:01;11.38;;;4.32;;
37241;SDS011;23135;51.078;12.108;2023-09-18T05:15:27;7.20;;;3.33;;
37241;SDS011;23135;51.078;12.108;2023-09-18T05:17:54;3.63;;;3.30;;
37241;SDS011;23135;51.078;12.108;2023-09-18T05:20:23;9.38;;;3.35;;
37241;SDS011;23135;51.078;12.108;2023-09-18T05:22:50;16.17;;;3.75;;
37241;SDS011;23135;51.078;12.108;2023-09-18T05:25:20;8.43;;;3.53;;
37241;SDS011;23135;51.078;12.108;2023-09-18T05:27:50;7.72;;;3.13;;
37241;SDS011;23135;51.078;12.108;2023-09-18T05:30:24;9.93;;;2.80;;
37241;SDS011;23135;51.078;12.108;2023-09-18T05:32:57;3.70;;;2.42;;
37241;SDS011;23135;51.078;12.108;2023-09-18T05:38:05;6.70;;;2.55;;
37241;SDS011;23135;51.078;12.108;2023-09-18T05:40:31;4.07;;;2.17;;
37241;SDS011;23135;51.078;12.108;2023-09-18T05:42:56;2.45;;;2.10;;
37241;SDS011;23135;51.078;12.108;2023-09-18T05:45:23;2.58;;;2.15;;
37241;SDS011;23135;51.078;12.108;2023-09-18T05:47:49;2.72;;;1.95;;
37241;SDS011;23135;51.078;12.108;2023-09-18T05:50:15;2.78;;;2.35;;
37241;SDS011;23135;51.078;12.108;2023-09-18T05:52:45;4.57;;;2.85;;
37241;SDS011;23135;51.078;12.108;2023-09-18T05:55:12;2.00;;;1.25;;
37241;SDS011;23135;51.078;12.108;2023-09-18T05:57:39;3.95;;;2.38;;
37241;SDS011;23135;51.078;12.108;2023-09-18T06:00:04;1.65;;;1.55;;
37241;SDS011;23135;51.078;12.108;2023-09-18T06:02:31;4.05;;;1.70;;
37241;SDS011;23135;51.078;12.108;2023-09-18T06:05:00;1.83;;;1.73;;
37241;SDS011;23135;51.078;12.108;2023-09-18T06:07:27;2.43;;;2.10;;
37241;SDS011;23135;51.078;12.108;2023-09-18T06:09:53;4.13;;;1.67;;
37241;SDS011;23135;51.078;12.108;2023-09-18T06:12:19;3.85;;;2.30;;
37241;SDS011;23135;51.078;12.108;2023-09-18T06:14:46;3.42;;;1.80;;
37241;SDS011;23135;51.078;12.108;2023-09-18T06:17:13;5.07;;;2.05;;
37241;SDS011;23135;51.078;12.108;2023-09-18T06:19:40;6.13;;;1.60;;
37241;SDS011;23135;51.078;12.108;2023-09-18T06:22:06;6.80;;;2.10;;
37241;SDS011;23135;51.078;12.108;2023-09-18T06:24:32;2.53;;;1.88;;
37241;SDS011;23135;51.078;12.108;2023-09-18T06:26:59;5.82;;;2.38;;
37241;SDS011;23135;51.078;12.108;2023-09-18T06:29:24;4.18;;;1.67;;
37241;SDS011;23135;51.078;12.108;2023-09-18T06:31:50;2.40;;;1.60;;
37241;SDS011;23135;51.078;12.108;2023-09-18T06:34:16;2.72;;;1.48;;
37241;SDS011;23135;51.078;12.108;2023-09-18T06:36:42;5.05;;;1.73;;
37241;SDS011;23135;51.078;12.108;2023-09-18T06:39:07;5.35;;;1.65;;
37241;SDS011;23135;51.078;12.108;2023-09-18T06:41:33;3.20;;;1.65;;
37241;SDS011;23135;51.078;12.108;2023-09-18T06:43:59;3.42;;;1.33;;
37241;SDS011;23135;51.078;12.108;2023-09-18T06:46:27;3.28;;;1.40;;
37241;SDS011;23135;51.078;12.108;2023-09-18T06:48:53;1.45;;;1.35;;
37241;SDS011;23135;51.078;12.108;2023-09-18T06:51:19;3.17;;;1.05;;
37241;SDS011;23135;51.078;12.108;2023-09-18T06:53:44;3.83;;;1.67;;
37241;SDS011;23135;51.078;12.108;2023-09-18T06:56:10;5.13;;;1.50;;
37241;SDS011;23135;51.078;12.108;2023-09-18T06:58:37;1.60;;;1.50;;
37241;SDS011;23135;51.078;12.108;2023-09-18T07:01:03;11.15;;;1.90;;
37241;SDS011;23135;51.078;12.108;2023-09-18T07:03:31;40.45;;;5.47;;
37241;SDS011;23135;51.078;12.108;2023-09-18T07:05:59;16.38;;;1.65;;
37241;SDS011;23135;51.078;12.108;2023-09-18T07:08:25;6.53;;;1.27;;
37241;SDS011;23135;51.078;12.108;2023-09-18T07:10:51;2.22;;;1.27;;
37241;SDS011;23135;51.078;12.108;2023-09-18T07:13:17;2.25;;;1.20;;
37241;SDS011;23135;51.078;12.108;2023-09-18T07:15:42;7.85;;;2.00;;
37241;SDS011;23135;51.078;12.108;2023-09-18T07:18:09;6.80;;;1.48;;
37241;SDS011;23135;51.078;12.108;2023-09-18T07:20:39;5.07;;;1.00;;
37241;SDS011;23135;51.078;12.108;2023-09-18T07:23:10;0.88;;;0.88;;
37241;SDS011;23135;51.078;12.108;2023-09-18T07:25:36;5.85;;;1.27;;
37241;SDS011;23135;51.078;12.108;2023-09-18T07:28:05;2.13;;;0.88;;
37241;SDS011;23135;51.078;12.108;2023-09-18T07:30:31;1.13;;;0.98;;
37241;SDS011;23135;51.078;12.108;2023-09-18T07:32:58;2.05;;;1.35;;
37241;SDS011;23135;51.078;12.108;2023-09-18T07:35:25;1.20;;;1.05;;
37241;SDS011;23135;51.078;12.108;2023-09-18T07:37:51;3.75;;;1.27;;
37241;SDS011;23135;51.078;12.108;2023-09-18T07:40:17;1.13;;;0.75;;
37241;SDS011;23135;51.078;12.108;2023-09-18T07:42:42;12.25;;;8.45;;
37241;SDS011;23135;51.078;12.108;2023-09-18T07:45:11;19.48;;;17.02;;
37241;SDS011;23135;51.078;12.108;2023-09-18T07:47:37;53.83;;;32.60;;
37241;SDS011;23135;51.078;12.108;2023-09-18T07:50:03;146.85;;;91.93;;
37241;SDS011;23135;51.078;12.108;2023-09-18T07:52:29;51.60;;;32.95;;
37241;SDS011;23135;51.078;12.108;2023-09-18T07:54:56;31.25;;;23.40;;
37241;SDS011;23135;51.078;12.108;2023-09-18T07:57:23;43.17;;;31.35;;
37241;SDS011;23135;51.078;12.108;2023-09-18T07:59:49;8.68;;;7.88;;
37241;SDS011;23135;51.078;12.108;2023-09-18T08:02:16;7.32;;;4.05;;
37241;SDS011;23135;51.078;12.108;2023-09-18T08:04:43;10.48;;;9.68;;
37241;SDS011;23135;51.078;12.108;2023-09-18T08:07:09;12.95;;;7.60;;
37241;SDS011;23135;51.078;12.108;2023-09-18T08:09:35;7.05;;;3.88;;
37241;SDS011;23135;51.078;12.108;2023-09-18T08:12:02;8.93;;;2.65;;
37241;SDS011;23135;51.078;12.108;2023-09-18T08:14:28;4.78;;;3.92;;
37241;SDS011;23135;51.078;12.108;2023-09-18T08:16:57;5.85;;;1.50;;
37241;SDS011;23135;51.078;12.108;2023-09-18T08:19:25;1.25;;;0.63;;
37241;SDS011;23135;51.078;12.108;2023-09-18T08:21:52;2.30;;;1.00;;
37241;SDS011;23135;51.078;12.108;2023-09-18T08:24:22;4.70;;;1.10;;
37241;SDS011;23135;51.078;12.108;2023-09-18T08:26:48;1.75;;;0.73;;
37241;SDS011;23135;51.078;12.108;2023-09-18T08:29:14;5.50;;;0.82;;
37241;SDS011;23135;51.078;12.108;2023-09-18T08:31:40;2.40;;;0.70;;
37241;SDS011;23135;51.078;12.108;2023-09-18T08:34:06;2.70;;;0.98;;
37241;SDS011;23135;51.078;12.108;2023-09-18T08:36:32;2.72;;;0.68;;
37241;SDS011;23135;51.078;12.108;2023-09-18T08:38:58;1.25;;;1.15;;
37241;SDS011;23135;51.078;12.108;2023-09-18T08:41:24;2.53;;;0.90;;
37241;SDS011;23135;51.078;12.108;2023-09-18T08:43:53;1.02;;;0.70;;
37241;SDS011;23135;51.078;12.108;2023-09-18T08:46:25;1.13;;;0.85;;
37241;SDS011;23135;51.078;12.108;2023-09-18T08:48:51;4.75;;;1.25;;
37241;SDS011;23135;51.078;12.108;2023-09-18T08:51:18;0.52;;;0.52;;
37241;SDS011;23135;51.078;12.108;2023-09-18T08:53:43;2.80;;;1.27;;
37241;SDS011;23135;51.078;12.108;2023-09-18T08:56:10;7.38;;;5.75;;
37241;SDS011;23135;51.078;12.108;2023-09-18T08:58:39;25.67;;;16.75;;
37241;SDS011;23135;51.078;12.108;2023-09-18T09:01:08;6.25;;;2.53;;
37241;SDS011;23135;51.078;12.108;2023-09-18T09:03:41;5.28;;;1.60;;
37241;SDS011;23135;51.078;12.108;2023-09-18T09:06:10;4.10;;;1.45;;
37241;SDS011;23135;51.078;12.108;2023-09-18T09:08:36;7.05;;;0.93;;
37241;SDS011;23135;51.078;12.108;2023-09-18T09:11:02;1.17;;;0.85;;
37241;SDS011;23135;51.078;12.108;2023-09-18T09:13:28;3.20;;;0.80;;
37241;SDS011;23135;51.078;12.108;2023-09-18T09:15:54;1.50;;;0.73;;
37241;SDS011;23135;51.078;12.108;2023-09-18T09:18:22;3.72;;;0.82;;
37241;SDS011;23135;51.078;12.108;2023-09-18T09:20:53;5.88;;;1.15;;
37241;SDS011;23135;51.078;12.108;2023-09-18T09:23:44;2.58;;;1.00;;
37241;SDS011;23135;51.078;12.108;2023-09-18T09:26:18;3.53;;;0.90;;
37241;SDS011;23135;51.078;12.108;2023-09-18T09:28:45;3.63;;;0.67;;
37241;SDS011;23135;51.078;12.108;2023-09-18T09:31:11;2.67;;;1.13;;
37241;SDS011;23135;51.078;12.108;2023-09-18T09:33:51;5.05;;;1.10;;
37241;SDS011;23135;51.078;12.108;2023-09-18T09:36:24;4.38;;;1.13;;
37241;SDS011;23135;51.078;12.108;2023-09-18T09:38:54;5.35;;;1.25;;
37241;SDS011;23135;51.078;12.108;2023-09-18T09:41:22;1.80;;;0.65;;
37241;SDS011;23135;51.078;12.108;2023-09-18T09:43:48;7.10;;;0.80;;
37241;SDS011;23135;51.078;12.108;2023-09-18T09:46:17;5.53;;;0.90;;
37241;SDS011;23135;51.078;12.108;2023-09-18T09:49:02;2.72;;;0.82;;
37241;SDS011;23135;51.078;12.108;2023-09-18T09:51:30;8.30;;;1.80;;
37241;SDS011;23135;51.078;12.108;2023-09-18T09:53:56;8.38;;;1.70;;
37241;SDS011;23135;51.078;12.108;2023-09-18T09:56:41;8.32;;;1.92;;
37241;SDS011;23135;51.078;12.108;2023-09-18T10:01:33;8.43;;;1.60;;
37241;SDS011;23135;51.078;12.108;2023-09-18T10:03:59;2.85;;;1.10;;
37241;SDS011;23135;51.078;12.108;2023-09-18T10:06:48;6.07;;;0.90;;
37241;SDS011;23135;51.078;12.108;2023-09-18T10:09:23;3.70;;;1.20;;
37241;SDS011;23135;51.078;12.108;2023-09-18T10:11:54;7.35;;;1.42;;
37241;SDS011;23135;51.078;12.108;2023-09-18T10:14:26;3.35;;;0.77;;
37241;SDS011;23135;51.078;12.108;2023-09-18T10:16:56;6.75;;;1.58;;
37241;SDS011;23135;51.078;12.108;2023-09-18T10:19:28;3.17;;;0.90;;
37241;SDS011;23135;51.078;12.108;2023-09-18T10:24:47;5.93;;;1.02;;
37241;SDS011;23135;51.078;12.108;2023-09-18T10:27:19;4.68;;;1.27;;
37241;SDS011;23135;51.078;12.108;2023-09-18T10:29:47;15.80;;;1.70;;
37241;SDS011;23135;51.078;12.108;2023-09-18T10:32:16;7.57;;;2.05;;
37241;SDS011;23135;51.078;12.108;2023-09-18T10:34:45;6.53;;;2.10;;
37241;SDS011;23135;51.078;12.108;2023-09-18T10:37:12;6.05;;;1.55;;
37241;SDS011;23135;51.078;12.108;2023-09-18T10:39:40;17.13;;;1.60;;
37241;SDS011;23135;51.078;12.108;2023-09-18T10:42:10;8.52;;;1.08;;
37241;SDS011;23135;51.078;12.108;2023-09-18T10:44:37;5.10;;;2.08;;
37241;SDS011;23135;51.078;12.108;2023-09-18T10:47:06;6.75;;;1.55;;
37241;SDS011;23135;51.078;12.108;2023-09-18T10:49:34;10.63;;;1.67;;
37241;SDS011;23135;51.078;12.108;2023-09-18T10:52:00;7.32;;;1.50;;
37241;SDS011;23135;51.078;12.108;2023-09-18T10:54:27;5.78;;;1.27;;
37241;SDS011;23135;51.078;12.108;2023-09-18T10:56:55;6.35;;;0.98;;
37241;SDS011;23135;51.078;12.108;2023-09-18T10:59:21;6.55;;;0.88;;
37241;SDS011;23135;51.078;12.108;2023-09-18T11:01:47;9.23;;;1.23;;
37241;SDS011;23135;51.078;12.108;2023-09-18T11:04:17;8.88;;;1.33;;
37241;SDS011;23135;51.078;12.108;2023-09-18T11:09:19;3.75;;;1.10;;
37241;SDS011;23135;51.078;12.108;2023-09-18T11:11:52;8.63;;;2.00;;
37241;SDS011;23135;51.078;12.108;2023-09-18T11:14:22;6.13;;;1.40;;
37241;SDS011;23135;51.078;12.108;2023-09-18T11:16:49;8.73;;;1.30;;
37241;SDS011;23135;51.078;12.108;2023-09-18T11:19:18;7.45;;;1.33;;
37241;SDS011;23135;51.078;12.108;2023-09-18T11:21:45;7.57;;;1.73;;
37241;SDS011;23135;51.078;12.108;2023-09-18T11:24:18;8.98;;;1.80;;
37241;SDS011;23135;51.078;12.108;2023-09-18T11:26:47;4.95;;;1.83;;
37241;SDS011;23135;51.078;12.108;2023-09-18T11:29:14;6.00;;;1.45;;
37241;SDS011;23135;51.078;12.108;2023-09-18T11:31:47;3.42;;;0.85;;
37241;SDS011;23135;51.078;12.108;2023-09-18T11:34:26;9.32;;;1.50;;
37241;SDS011;23135;51.078;12.108;2023-09-18T11:36:53;4.93;;;2.30;;
37241;SDS011;23135;51.078;12.108;2023-09-18T11:39:39;9.90;;;1.88;;
37241;SDS011;23135;51.078;12.108;2023-09-18T11:42:09;7.10;;;1.33;;
37241;SDS011;23135;51.078;12.108;2023-09-18T11:44:38;6.90;;;1.42;;
37241;SDS011;23135;51.078;12.108;2023-09-18T11:47:11;4.05;;;1.20;;
37241;SDS011;23135;51.078;12.108;2023-09-18T11:49:42;6.57;;;0.97;;
37241;SDS011;23135;51.078;12.108;2023-09-18T11:52:14;5.22;;;1.27;;
37241;SDS011;23135;51.078;12.108;2023-09-18T11:54:42;7.00;;;1.92;;
37241;SDS011;23135;51.078;12.108;2023-09-18T11:57:08;4.43;;;1.33;;
37241;SDS011;23135;51.078;12.108;2023-09-18T11:59:38;9.88;;;1.45;;
37241;SDS011;23135;51.078;12.108;2023-09-18T12:02:04;4.32;;;0.70;;
37241;SDS011;23135;51.078;12.108;2023-09-18T12:04:33;19.38;;;2.45;;
37241;SDS011;23135;51.078;12.108;2023-09-18T12:06:59;4.97;;;1.02;;
37241;SDS011;23135;51.078;12.108;2023-09-18T12:09:28;4.55;;;1.10;;
37241;SDS011;23135;51.078;12.108;2023-09-18T12:12:01;8.18;;;1.95;;
37241;SDS011;23135;51.078;12.108;2023-09-18T12:14:30;3.30;;;1.35;;
37241;SDS011;23135;51.078;12.108;2023-09-18T12:16:57;7.85;;;1.05;;
37241;SDS011;23135;51.078;12.108;2023-09-18T12:19:25;5.68;;;1.42;;
37241;SDS011;23135;51.078;12.108;2023-09-18T12:21:50;4.93;;;1.77;;
37241;SDS011;23135;51.078;12.108;2023-09-18T12:24:23;6.90;;;1.98;;
37241;SDS011;23135;51.078;12.108;2023-09-18T12:26:50;6.45;;;1.50;;
37241;SDS011;23135;51.078;12.108;2023-09-18T12:29:17;6.03;;;1.20;;
37241;SDS011;23135;51.078;12.108;2023-09-18T12:31:43;6.70;;;1.83;;
37241;SDS011;23135;51.078;12.108;2023-09-18T12:34:18;5.60;;;1.98;;
37241;SDS011;23135;51.078;12.108;2023-09-18T12:36:48;4.25;;;2.20;;
37241;SDS011;23135;51.078;12.108;2023-09-18T12:39:15;7.80;;;1.33;;
37241;SDS011;23135;51.078;12.108;2023-09-18T12:41:42;14.18;;;1.60;;
37241;SDS011;23135;51.078;12.108;2023-09-18T12:44:09;5.28;;;1.88;;
37241;SDS011;23135;51.078;12.108;2023-09-18T12:46:35;6.70;;;1.77;;
37241;SDS011;23135;51.078;12.108;2023-09-18T12:49:14;6.88;;;1.55;;
37241;SDS011;23135;51.078;12.108;2023-09-18T12:54:38;8.35;;;1.45;;
37241;SDS011;23135;51.078;12.108;2023-09-18T12:57:10;8.25;;;1.83;;
37241;SDS011;23135;51.078;12.108;2023-09-18T12:59:40;5.43;;;1.73;;
37241;SDS011;23135;51.078;12.108;2023-09-18T13:02:05;4.32;;;0.95;;
37241;SDS011;23135;51.078;12.108;2023-09-18T13:04:35;8.30;;;1.30;;
37241;SDS011;23135;51.078;12.108;2023-09-18T13:07:11;5.18;;;1.02;;
37241;SDS011;23135;51.078;12.108;2023-09-18T13:09:40;10.43;;;0.80;;
37241;SDS011;23135;51.078;12.108;2023-09-18T13:12:06;6.03;;;2.58;;
37241;SDS011;23135;51.078;12.108;2023-09-18T13:17:44;4.20;;;0.70;;
37241;SDS011;23135;51.078;12.108;2023-09-18T13:20:17;7.32;;;0.63;;
37241;SDS011;23135;51.078;12.108;2023-09-18T13:22:49;4.18;;;0.98;;
37241;SDS011;23135;51.078;12.108;2023-09-18T13:25:23;4.30;;;1.30;;
37241;SDS011;23135;51.078;12.108;2023-09-18T13:27:59;7.90;;;1.23;;
37241;SDS011;23135;51.078;12.108;2023-09-18T13:30:26;3.72;;;1.20;;
37241;SDS011;23135;51.078;12.108;2023-09-18T13:33:00;1.83;;;0.57;;
37241;SDS011;23135;51.078;12.108;2023-09-18T13:35:37;7.15;;;0.95;;
37241;SDS011;23135;51.078;12.108;2023-09-18T13:38:05;9.30;;;1.42;;
37241;SDS011;23135;51.078;12.108;2023-09-18T13:40:31;4.78;;;0.65;;
37241;SDS011;23135;51.078;12.108;2023-09-18T13:42:58;4.32;;;1.25;;
37241;SDS011;23135;51.078;12.108;2023-09-18T13:45:24;2.70;;;0.95;;
37241;SDS011;23135;51.078;12.108;2023-09-18T13:47:50;6.15;;;1.65;;
37241;SDS011;23135;51.078;12.108;2023-09-18T13:50:16;8.48;;;1.55;;
37241;SDS011;23135;51.078;12.108;2023-09-18T13:52:41;5.00;;;1.15;;
37241;SDS011;23135;51.078;12.108;2023-09-18T13:55:07;3.03;;;0.95;;
37241;SDS011;23135;51.078;12.108;2023-09-18T13:57:34;5.85;;;0.93;;
37241;SDS011;23135;51.078;12.108;2023-09-18T14:00:03;8.27;;;1.02;;
37241;SDS011;23135;51.078;12.108;2023-09-18T14:02:33;7.85;;;2.72;;
37241;SDS011;23135;51.078;12.108;2023-09-18T14:04:59;7.32;;;0.95;;
37241;SDS011;23135;51.078;12.108;2023-09-18T14:07:24;4.32;;;0.77;;
37241;SDS011;23135;51.078;12.108;2023-09-18T14:09:50;2.55;;;0.90;;
37241;SDS011;23135;51.078;12.108;2023-09-18T14:12:16;3.40;;;0.60;;
37241;SDS011;23135;51.078;12.108;2023-09-18T14:14:42;5.80;;;0.70;;
37241;SDS011;23135;51.078;12.108;2023-09-18T14:17:08;4.90;;;1.70;;
37241;SDS011;23135;51.078;12.108;2023-09-18T14:19:35;5.40;;;1.17;;
37241;SDS011;23135;51.078;12.108;2023-09-18T14:22:03;8.85;;;1.70;;
37241;SDS011;23135;51.078;12.108;2023-09-18T14:24:30;15.52;;;2.58;;
37241;SDS011;23135;51.078;12.108;2023-09-18T14:26:59;7.55;;;1.33;;
37241;SDS011;23135;51.078;12.108;2023-09-18T14:29:25;3.85;;;1.63;;
37241;SDS011;23135;51.078;12.108;2023-09-18T14:31:51;6.55;;;2.50;;
37241;SDS011;23135;51.078;12.108;2023-09-18T14:34:17;9.18;;;1.73;;
37241;SDS011;23135;51.078;12.108;2023-09-18T14:36:43;4.20;;;1.50;;
37241;SDS011;23135;51.078;12.108;2023-09-18T14:39:09;8.35;;;1.15;;
37241;SDS011;23135;51.078;12.108;2023-09-18T14:41:40;5.50;;;1.30;;
37241;SDS011;23135;51.078;12.108;2023-09-18T14:44:07;9.18;;;1.42;;
37241;SDS011;23135;51.078;12.108;2023-09-18T14:46:34;7.65;;;1.90;;
37241;SDS011;23135;51.078;12.108;2023-09-18T14:49:03;7.78;;;3.08;;
37241;SDS011;23135;51.078;12.108;2023-09-18T14:51:30;5.72;;;2.72;;